sensor_id;sensor_type;location;lat;lon;timestamp;P1;durP1;ratioP1;P2;durP2;ratioP2
73632;SDS011;61927;50.080;14.418;2023-02-28T00:01:20;11.55;;;6.38;;
73632;SDS011;61927;50.080;14.418;2023-02-28T00:03:47;9.10;;;5.88;;
73632;SDS011;61927;50.080;14.418;2023-02-28T00:06:12;13.68;;;6.57;;
73632;SDS011;61927;50.080;14.418;2023-02-28T00:08:38;13.43;;;6.57;;
73632;SDS011;61927;50.080;14.418;2023-02-28T00:11:09;11.43;;;6.55;;
73632;SDS011;61927;50.080;14.418;2023-02-28T00:13:37;15.20;;;6.50;;
73632;SDS011;61927;50.080;14.418;2023-02-28T00:16:11;10.48;;;6.35;;
73632;SDS011;61927;50.080;14.418;2023-02-28T00:18:40;13.50;;;6.82;;
73632;SDS011;61927;50.080;14.418;2023-02-28T00:21:06;19.45;;;6.85;;
73632;SDS011;61927;50.080;14.418;2023-02-28T00:23:33;12.23;;;6.65;;
73632;SDS011;61927;50.080;14.418;2023-02-28T00:25:59;11.45;;;6.15;;
73632;SDS011;61927;50.080;14.418;2023-02-28T00:28:25;8.88;;;6.15;;
73632;SDS011;61927;50.080;14.418;2023-02-28T00:30:50;9.85;;;6.38;;
73632;SDS011;61927;50.080;14.418;2023-02-28T00:33:16;11.32;;;6.72;;
73632;SDS011;61927;50.080;14.418;2023-02-28T00:35:42;11.20;;;6.45;;
73632;SDS011;61927;50.080;14.418;2023-02-28T00:38:08;15.10;;;6.88;;
73632;SDS011;61927;50.080;14.418;2023-02-28T00:40:34;11.70;;;6.70;;
73632;SDS011;61927;50.080;14.418;2023-02-28T00:43:00;11.18;;;6.40;;
73632;SDS011;61927;50.080;14.418;2023-02-28T00:45:26;12.52;;;7.20;;
73632;SDS011;61927;50.080;14.418;2023-02-28T00:47:51;12.75;;;6.75;;
73632;SDS011;61927;50.080;14.418;2023-02-28T00:50:17;12.48;;;7.03;;
73632;SDS011;61927;50.080;14.418;2023-02-28T00:52:44;9.60;;;6.50;;
73632;SDS011;61927;50.080;14.418;2023-02-28T00:55:09;11.90;;;6.90;;
73632;SDS011;61927;50.080;14.418;2023-02-28T00:57:35;8.35;;;5.95;;
73632;SDS011;61927;50.080;14.418;2023-02-28T01:00:01;10.50;;;5.95;;
73632;SDS011;61927;50.080;14.418;2023-02-28T01:02:28;12.55;;;6.40;;
73632;SDS011;61927;50.080;14.418;2023-02-28T01:04:53;10.80;;;6.22;;
73632;SDS011;61927;50.080;14.418;2023-02-28T01:07:19;12.13;;;6.32;;
73632;SDS011;61927;50.080;14.418;2023-02-28T01:09:44;11.52;;;7.10;;
73632;SDS011;61927;50.080;14.418;2023-02-28T01:12:10;13.77;;;6.55;;
73632;SDS011;61927;50.080;14.418;2023-02-28T01:14:36;12.70;;;5.78;;
73632;SDS011;61927;50.080;14.418;2023-02-28T01:17:02;9.55;;;6.45;;
73632;SDS011;61927;50.080;14.418;2023-02-28T01:19:28;9.98;;;6.00;;
73632;SDS011;61927;50.080;14.418;2023-02-28T01:21:54;9.07;;;5.93;;
73632;SDS011;61927;50.080;14.418;2023-02-28T01:24:19;13.38;;;6.88;;
73632;SDS011;61927;50.080;14.418;2023-02-28T01:26:45;11.65;;;5.72;;
73632;SDS011;61927;50.080;14.418;2023-02-28T01:29:10;13.15;;;6.50;;
73632;SDS011;61927;50.080;14.418;2023-02-28T01:31:36;11.13;;;6.65;;
73632;SDS011;61927;50.080;14.418;2023-02-28T01:34:02;10.40;;;6.63;;
73632;SDS011;61927;50.080;14.418;2023-02-28T01:36:28;14.80;;;6.00;;
73632;SDS011;61927;50.080;14.418;2023-02-28T01:38:54;14.40;;;6.70;;
73632;SDS011;61927;50.080;14.418;2023-02-28T01:41:27;12.75;;;6.63;;
73632;SDS011;61927;50.080;14.418;2023-02-28T01:43:56;14.80;;;7.53;;
73632;SDS011;61927;50.080;14.418;2023-02-28T01:46:23;12.95;;;6.82;;
73632;SDS011;61927;50.080;14.418;2023-02-28T01:54:11;12.82;;;7.03;;
73632;SDS011;61927;50.080;14.418;2023-02-28T01:56:43;12.20;;;7.22;;
73632;SDS011;61927;50.080;14.418;2023-02-28T01:59:12;11.60;;;6.20;;
73632;SDS011;61927;50.080;14.418;2023-02-28T02:01:43;11.20;;;6.88;;
73632;SDS011;61927;50.080;14.418;2023-02-28T02:04:09;12.20;;;6.93;;
73632;SDS011;61927;50.080;14.418;2023-02-28T02:06:39;11.60;;;6.82;;
73632;SDS011;61927;50.080;14.418;2023-02-28T02:09:07;10.27;;;6.75;;
73632;SDS011;61927;50.080;14.418;2023-02-28T02:11:33;15.73;;;6.90;;
73632;SDS011;61927;50.080;14.418;2023-02-28T02:16:30;11.75;;;6.53;;
73632;SDS011;61927;50.080;14.418;2023-02-28T02:19:15;11.55;;;6.20;;
73632;SDS011;61927;50.080;14.418;2023-02-28T02:22:09;14.10;;;6.65;;
73632;SDS011;61927;50.080;14.418;2023-02-28T02:27:37;14.30;;;6.30;;
73632;SDS011;61927;50.080;14.418;2023-02-28T02:46:33;9.10;;;6.22;;
73632;SDS011;61927;50.080;14.418;2023-02-28T02:49:03;12.35;;;5.95;;
73632;SDS011;61927;50.080;14.418;2023-02-28T02:51:33;12.95;;;6.00;;
73632;SDS011;61927;50.080;14.418;2023-02-28T02:54:11;10.23;;;6.38;;
73632;SDS011;61927;50.080;14.418;2023-02-28T02:56:42;10.40;;;5.80;;
73632;SDS011;61927;50.080;14.418;2023-02-28T02:59:11;10.48;;;5.93;;
73632;SDS011;61927;50.080;14.418;2023-02-28T03:01:39;8.05;;;5.32;;
73632;SDS011;61927;50.080;14.418;2023-02-28T03:04:09;10.82;;;6.10;;
73632;SDS011;61927;50.080;14.418;2023-02-28T03:06:38;10.23;;;5.38;;
73632;SDS011;61927;50.080;14.418;2023-02-28T03:09:04;12.38;;;6.18;;
73632;SDS011;61927;50.080;14.418;2023-02-28T03:11:30;8.23;;;5.90;;
73632;SDS011;61927;50.080;14.418;2023-02-28T03:24:32;8.05;;;5.55;;
73632;SDS011;61927;50.080;14.418;2023-02-28T03:27:07;9.07;;;5.60;;
73632;SDS011;61927;50.080;14.418;2023-02-28T03:29:46;14.18;;;6.05;;
73632;SDS011;61927;50.080;14.418;2023-02-28T03:32:31;10.25;;;6.03;;
73632;SDS011;61927;50.080;14.418;2023-02-28T03:35:05;11.40;;;5.70;;
73632;SDS011;61927;50.080;14.418;2023-02-28T03:37:37;10.10;;;5.82;;
73632;SDS011;61927;50.080;14.418;2023-02-28T03:40:10;13.70;;;5.65;;
73632;SDS011;61927;50.080;14.418;2023-02-28T03:42:40;10.45;;;6.05;;
73632;SDS011;61927;50.080;14.418;2023-02-28T03:45:10;14.18;;;6.10;;
73632;SDS011;61927;50.080;14.418;2023-02-28T03:47:58;10.70;;;6.07;;
73632;SDS011;61927;50.080;14.418;2023-02-28T03:50:40;10.00;;;5.70;;
73632;SDS011;61927;50.080;14.418;2023-02-28T03:53:15;11.50;;;6.20;;
73632;SDS011;61927;50.080;14.418;2023-02-28T03:55:45;10.65;;;5.97;;
73632;SDS011;61927;50.080;14.418;2023-02-28T03:58:28;13.60;;;5.72;;
73632;SDS011;61927;50.080;14.418;2023-02-28T04:01:07;11.10;;;6.32;;
73632;SDS011;61927;50.080;14.418;2023-02-28T04:06:02;9.40;;;5.60;;
73632;SDS011;61927;50.080;14.418;2023-02-28T04:08:29;12.55;;;5.70;;
73632;SDS011;61927;50.080;14.418;2023-02-28T04:11:02;12.75;;;6.78;;
73632;SDS011;61927;50.080;14.418;2023-02-28T04:13:31;9.70;;;5.85;;
73632;SDS011;61927;50.080;14.418;2023-02-28T04:15:57;11.05;;;5.82;;
73632;SDS011;61927;50.080;14.418;2023-02-28T04:18:22;11.30;;;5.93;;
73632;SDS011;61927;50.080;14.418;2023-02-28T04:20:48;8.70;;;5.45;;
73632;SDS011;61927;50.080;14.418;2023-02-28T04:23:14;11.18;;;6.38;;
73632;SDS011;61927;50.080;14.418;2023-02-28T04:25:39;11.25;;;6.05;;
73632;SDS011;61927;50.080;14.418;2023-02-28T04:28:06;7.70;;;5.68;;
73632;SDS011;61927;50.080;14.418;2023-02-28T04:30:31;9.60;;;5.82;;
73632;SDS011;61927;50.080;14.418;2023-02-28T04:32:58;8.30;;;5.88;;
73632;SDS011;61927;50.080;14.418;2023-02-28T04:35:23;12.63;;;6.05;;
73632;SDS011;61927;50.080;14.418;2023-02-28T04:37:49;10.05;;;5.90;;
73632;SDS011;61927;50.080;14.418;2023-02-28T04:40:15;9.05;;;6.35;;
73632;SDS011;61927;50.080;14.418;2023-02-28T04:42:40;10.43;;;6.13;;
73632;SDS011;61927;50.080;14.418;2023-02-28T04:45:06;12.85;;;5.45;;
73632;SDS011;61927;50.080;14.418;2023-02-28T04:47:35;15.23;;;6.82;;
73632;SDS011;61927;50.080;14.418;2023-02-28T04:50:01;9.10;;;5.35;;
73632;SDS011;61927;50.080;14.418;2023-02-28T04:52:27;11.48;;;6.22;;
73632;SDS011;61927;50.080;14.418;2023-02-28T04:54:53;13.35;;;6.93;;
73632;SDS011;61927;50.080;14.418;2023-02-28T04:57:18;10.13;;;6.30;;
73632;SDS011;61927;50.080;14.418;2023-02-28T04:59:44;14.98;;;6.53;;
73632;SDS011;61927;50.080;14.418;2023-02-28T05:02:09;8.95;;;5.50;;
73632;SDS011;61927;50.080;14.418;2023-02-28T05:04:35;17.58;;;6.78;;
73632;SDS011;61927;50.080;14.418;2023-02-28T05:07:01;19.83;;;7.30;;
73632;SDS011;61927;50.080;14.418;2023-02-28T05:09:28;16.33;;;6.57;;
73632;SDS011;61927;50.080;14.418;2023-02-28T05:11:54;13.40;;;6.30;;
73632;SDS011;61927;50.080;14.418;2023-02-28T05:14:20;11.20;;;6.40;;
73632;SDS011;61927;50.080;14.418;2023-02-28T05:16:45;14.77;;;7.03;;
73632;SDS011;61927;50.080;14.418;2023-02-28T05:19:11;11.30;;;6.18;;
73632;SDS011;61927;50.080;14.418;2023-02-28T05:21:41;11.95;;;6.65;;
73632;SDS011;61927;50.080;14.418;2023-02-28T05:24:13;12.82;;;6.75;;
73632;SDS011;61927;50.080;14.418;2023-02-28T05:26:42;12.75;;;6.80;;
73632;SDS011;61927;50.080;14.418;2023-02-28T05:29:08;21.45;;;7.50;;
73632;SDS011;61927;50.080;14.418;2023-02-28T05:31:34;12.52;;;6.88;;
73632;SDS011;61927;50.080;14.418;2023-02-28T05:34:00;16.52;;;6.85;;
73632;SDS011;61927;50.080;14.418;2023-02-28T05:36:26;16.48;;;7.25;;
73632;SDS011;61927;50.080;14.418;2023-02-28T05:38:51;10.27;;;6.50;;
73632;SDS011;61927;50.080;14.418;2023-02-28T05:41:18;11.98;;;6.50;;
73632;SDS011;61927;50.080;14.418;2023-02-28T05:43:47;15.68;;;6.18;;
73632;SDS011;61927;50.080;14.418;2023-02-28T05:46:13;10.35;;;6.00;;
73632;SDS011;61927;50.080;14.418;2023-02-28T05:48:40;13.50;;;6.50;;
73632;SDS011;61927;50.080;14.418;2023-02-28T05:51:07;12.27;;;6.97;;
73632;SDS011;61927;50.080;14.418;2023-02-28T05:53:34;11.32;;;6.75;;
73632;SDS011;61927;50.080;14.418;2023-02-28T05:56:00;13.73;;;7.10;;
73632;SDS011;61927;50.080;14.418;2023-02-28T05:58:26;13.15;;;7.65;;
73632;SDS011;61927;50.080;14.418;2023-02-28T06:00:59;15.98;;;7.95;;
73632;SDS011;61927;50.080;14.418;2023-02-28T06:03:26;21.38;;;7.63;;
73632;SDS011;61927;50.080;14.418;2023-02-28T06:05:52;14.13;;;7.15;;
73632;SDS011;61927;50.080;14.418;2023-02-28T06:08:18;16.05;;;6.85;;
73632;SDS011;61927;50.080;14.418;2023-02-28T06:10:44;12.73;;;7.15;;
73632;SDS011;61927;50.080;14.418;2023-02-28T06:13:10;14.30;;;7.78;;
73632;SDS011;61927;50.080;14.418;2023-02-28T06:15:37;12.77;;;7.65;;
73632;SDS011;61927;50.080;14.418;2023-02-28T06:18:03;12.48;;;7.20;;
73632;SDS011;61927;50.080;14.418;2023-02-28T06:20:29;12.10;;;6.25;;
73632;SDS011;61927;50.080;14.418;2023-02-28T06:22:56;13.90;;;7.65;;
73632;SDS011;61927;50.080;14.418;2023-02-28T06:25:24;12.93;;;6.28;;
73632;SDS011;61927;50.080;14.418;2023-02-28T06:27:51;11.85;;;6.57;;
73632;SDS011;61927;50.080;14.418;2023-02-28T06:30:16;14.57;;;7.68;;
73632;SDS011;61927;50.080;14.418;2023-02-28T06:32:42;15.07;;;8.43;;
73632;SDS011;61927;50.080;14.418;2023-02-28T06:35:08;19.40;;;6.68;;
73632;SDS011;61927;50.080;14.418;2023-02-28T06:37:33;9.30;;;6.45;;
73632;SDS011;61927;50.080;14.418;2023-02-28T06:39:59;12.70;;;6.88;;
73632;SDS011;61927;50.080;14.418;2023-02-28T06:42:25;25.08;;;9.75;;
73632;SDS011;61927;50.080;14.418;2023-02-28T06:44:54;9.73;;;6.38;;
73632;SDS011;61927;50.080;14.418;2023-02-28T06:47:20;13.05;;;6.80;;
73632;SDS011;61927;50.080;14.418;2023-02-28T06:49:46;13.80;;;7.65;;
73632;SDS011;61927;50.080;14.418;2023-02-28T06:52:12;13.60;;;7.72;;
73632;SDS011;61927;50.080;14.418;2023-02-28T06:54:37;11.23;;;6.88;;
73632;SDS011;61927;50.080;14.418;2023-02-28T06:57:03;10.13;;;6.57;;
73632;SDS011;61927;50.080;14.418;2023-02-28T06:59:29;11.57;;;6.97;;
73632;SDS011;61927;50.080;14.418;2023-02-28T07:01:55;18.35;;;7.47;;
73632;SDS011;61927;50.080;14.418;2023-02-28T07:04:21;14.50;;;7.38;;
73632;SDS011;61927;50.080;14.418;2023-02-28T07:06:47;19.88;;;8.13;;
73632;SDS011;61927;50.080;14.418;2023-02-28T07:09:12;15.32;;;7.80;;
73632;SDS011;61927;50.080;14.418;2023-02-28T07:11:39;13.57;;;7.35;;
73632;SDS011;61927;50.080;14.418;2023-02-28T07:14:06;14.50;;;7.38;;
73632;SDS011;61927;50.080;14.418;2023-02-28T07:16:32;17.42;;;7.03;;
73632;SDS011;61927;50.080;14.418;2023-02-28T07:18:58;18.33;;;7.72;;
73632;SDS011;61927;50.080;14.418;2023-02-28T07:21:23;13.10;;;7.30;;
73632;SDS011;61927;50.080;14.418;2023-02-28T07:23:49;14.48;;;7.68;;
73632;SDS011;61927;50.080;14.418;2023-02-28T07:26:17;22.35;;;8.65;;
73632;SDS011;61927;50.080;14.418;2023-02-28T07:28:44;13.68;;;6.95;;
73632;SDS011;61927;50.080;14.418;2023-02-28T07:31:12;20.52;;;8.50;;
73632;SDS011;61927;50.080;14.418;2023-02-28T07:33:39;13.25;;;6.88;;
73632;SDS011;61927;50.080;14.418;2023-02-28T07:36:06;12.98;;;7.85;;
73632;SDS011;61927;50.080;14.418;2023-02-28T07:38:34;13.95;;;6.95;;
73632;SDS011;61927;50.080;14.418;2023-02-28T07:41:01;20.60;;;8.45;;
73632;SDS011;61927;50.080;14.418;2023-02-28T07:43:30;18.20;;;8.82;;
73632;SDS011;61927;50.080;14.418;2023-02-28T07:46:00;19.02;;;8.15;;
73632;SDS011;61927;50.080;14.418;2023-02-28T07:48:33;21.45;;;8.05;;
73632;SDS011;61927;50.080;14.418;2023-02-28T07:50:59;25.75;;;8.32;;
73632;SDS011;61927;50.080;14.418;2023-02-28T07:53:26;18.23;;;7.43;;
73632;SDS011;61927;50.080;14.418;2023-02-28T07:55:56;13.98;;;7.93;;
73632;SDS011;61927;50.080;14.418;2023-02-28T07:58:22;17.48;;;7.63;;
73632;SDS011;61927;50.080;14.418;2023-02-28T08:00:49;12.77;;;7.43;;
73632;SDS011;61927;50.080;14.418;2023-02-28T08:03:17;19.35;;;8.98;;
73632;SDS011;61927;50.080;14.418;2023-02-28T08:05:44;10.57;;;7.25;;
73632;SDS011;61927;50.080;14.418;2023-02-28T08:08:09;17.95;;;9.05;;
73632;SDS011;61927;50.080;14.418;2023-02-28T08:10:35;14.55;;;8.40;;
73632;SDS011;61927;50.080;14.418;2023-02-28T08:13:01;14.20;;;8.05;;
73632;SDS011;61927;50.080;14.418;2023-02-28T08:15:27;17.83;;;8.05;;
73632;SDS011;61927;50.080;14.418;2023-02-28T08:17:52;15.90;;;7.97;;
73632;SDS011;61927;50.080;14.418;2023-02-28T08:20:18;31.42;;;11.23;;
73632;SDS011;61927;50.080;14.418;2023-02-28T08:22:44;18.30;;;8.88;;
73632;SDS011;61927;50.080;14.418;2023-02-28T08:25:10;10.68;;;6.78;;
73632;SDS011;61927;50.080;14.418;2023-02-28T08:27:36;11.20;;;6.85;;
73632;SDS011;61927;50.080;14.418;2023-02-28T08:30:02;13.07;;;6.70;;
73632;SDS011;61927;50.080;14.418;2023-02-28T08:32:28;13.93;;;7.68;;
73632;SDS011;61927;50.080;14.418;2023-02-28T08:34:54;11.02;;;6.88;;
73632;SDS011;61927;50.080;14.418;2023-02-28T08:37:20;11.35;;;7.35;;
73632;SDS011;61927;50.080;14.418;2023-02-28T08:39:45;12.80;;;7.82;;
73632;SDS011;61927;50.080;14.418;2023-02-28T08:42:11;20.77;;;7.03;;
73632;SDS011;61927;50.080;14.418;2023-02-28T08:44:37;15.80;;;7.45;;
73632;SDS011;61927;50.080;14.418;2023-02-28T08:47:02;25.58;;;8.48;;
73632;SDS011;61927;50.080;14.418;2023-02-28T08:49:28;12.90;;;7.68;;
73632;SDS011;61927;50.080;14.418;2023-02-28T08:51:53;21.33;;;8.18;;
73632;SDS011;61927;50.080;14.418;2023-02-28T08:54:20;13.93;;;7.82;;
73632;SDS011;61927;50.080;14.418;2023-02-28T08:56:46;17.08;;;8.57;;
73632;SDS011;61927;50.080;14.418;2023-02-28T08:59:12;13.10;;;7.68;;
73632;SDS011;61927;50.080;14.418;2023-02-28T09:01:39;14.77;;;8.23;;
73632;SDS011;61927;50.080;14.418;2023-02-28T09:04:06;16.33;;;7.72;;
73632;SDS011;61927;50.080;14.418;2023-02-28T09:06:33;15.63;;;8.57;;
73632;SDS011;61927;50.080;14.418;2023-02-28T09:09:00;20.58;;;9.65;;
73632;SDS011;61927;50.080;14.418;2023-02-28T09:11:27;12.40;;;8.32;;
73632;SDS011;61927;50.080;14.418;2023-02-28T09:13:53;12.18;;;7.55;;
73632;SDS011;61927;50.080;14.418;2023-02-28T09:16:20;24.55;;;9.63;;
73632;SDS011;61927;50.080;14.418;2023-02-28T09:18:47;17.33;;;8.02;;
73632;SDS011;61927;50.080;14.418;2023-02-28T09:21:14;17.38;;;8.18;;
73632;SDS011;61927;50.080;14.418;2023-02-28T09:23:42;16.10;;;7.38;;
73632;SDS011;61927;50.080;14.418;2023-02-28T09:26:16;16.42;;;7.63;;
73632;SDS011;61927;50.080;14.418;2023-02-28T09:28:44;16.85;;;7.72;;
73632;SDS011;61927;50.080;14.418;2023-02-28T09:31:14;11.52;;;7.13;;
73632;SDS011;61927;50.080;14.418;2023-02-28T09:33:46;22.92;;;8.15;;
73632;SDS011;61927;50.080;14.418;2023-02-28T09:36:13;15.15;;;7.90;;
73632;SDS011;61927;50.080;14.418;2023-02-28T09:38:38;16.33;;;7.57;;
73632;SDS011;61927;50.080;14.418;2023-02-28T09:41:10;12.73;;;6.68;;
73632;SDS011;61927;50.080;14.418;2023-02-28T09:43:40;17.00;;;8.80;;
73632;SDS011;61927;50.080;14.418;2023-02-28T09:49:11;13.43;;;6.97;;
73632;SDS011;61927;50.080;14.418;2023-02-28T09:51:43;14.48;;;7.40;;
73632;SDS011;61927;50.080;14.418;2023-02-28T09:54:18;11.30;;;7.72;;
73632;SDS011;61927;50.080;14.418;2023-02-28T09:56:54;19.17;;;7.78;;
73632;SDS011;61927;50.080;14.418;2023-02-28T09:59:30;23.98;;;6.97;;
73632;SDS011;61927;50.080;14.418;2023-02-28T10:05:16;13.30;;;6.95;;
73632;SDS011;61927;50.080;14.418;2023-02-28T10:08:02;14.00;;;7.65;;
73632;SDS011;61927;50.080;14.418;2023-02-28T10:10:41;12.82;;;7.15;;
73632;SDS011;61927;50.080;14.418;2023-02-28T10:15:55;12.25;;;7.15;;
73632;SDS011;61927;50.080;14.418;2023-02-28T10:18:31;15.23;;;7.95;;
73632;SDS011;61927;50.080;14.418;2023-02-28T10:21:20;13.60;;;7.75;;
73632;SDS011;61927;50.080;14.418;2023-02-28T10:23:51;14.32;;;7.18;;
73632;SDS011;61927;50.080;14.418;2023-02-28T10:26:21;17.38;;;7.20;;
73632;SDS011;61927;50.080;14.418;2023-02-28T10:28:51;14.35;;;7.65;;
73632;SDS011;61927;50.080;14.418;2023-02-28T10:31:18;14.13;;;7.97;;
73632;SDS011;61927;50.080;14.418;2023-02-28T10:33:45;13.50;;;7.13;;
73632;SDS011;61927;50.080;14.418;2023-02-28T10:36:15;25.20;;;9.13;;
73632;SDS011;61927;50.080;14.418;2023-02-28T10:38:43;12.60;;;7.65;;
73632;SDS011;61927;50.080;14.418;2023-02-28T10:41:12;16.05;;;8.15;;
73632;SDS011;61927;50.080;14.418;2023-02-28T10:44:18;11.65;;;6.57;;
73632;SDS011;61927;50.080;14.418;2023-02-28T10:46:47;10.73;;;7.20;;
73632;SDS011;61927;50.080;14.418;2023-02-28T10:49:17;15.68;;;7.93;;
73632;SDS011;61927;50.080;14.418;2023-02-28T10:51:46;15.43;;;8.38;;
73632;SDS011;61927;50.080;14.418;2023-02-28T10:54:18;12.82;;;7.32;;
73632;SDS011;61927;50.080;14.418;2023-02-28T10:57:48;12.77;;;7.10;;
73632;SDS011;61927;50.080;14.418;2023-02-28T10:59:45;13.50;;;7.57;;
73632;SDS011;61927;50.080;14.418;2023-02-28T11:02:31;13.00;;;7.60;;
73632;SDS011;61927;50.080;14.418;2023-02-28T11:05:01;18.00;;;7.80;;
73632;SDS011;61927;50.080;14.418;2023-02-28T11:07:27;18.38;;;8.38;;
73632;SDS011;61927;50.080;14.418;2023-02-28T11:09:56;15.65;;;8.32;;
73632;SDS011;61927;50.080;14.418;2023-02-28T11:12:28;10.63;;;7.90;;
73632;SDS011;61927;50.080;14.418;2023-02-28T11:15:46;13.98;;;8.15;;
73632;SDS011;61927;50.080;14.418;2023-02-28T11:18:00;18.93;;;8.13;;
73632;SDS011;61927;50.080;14.418;2023-02-28T11:20:29;21.40;;;8.68;;
73632;SDS011;61927;50.080;14.418;2023-02-28T11:22:58;20.13;;;10.27;;
73632;SDS011;61927;50.080;14.418;2023-02-28T11:25:29;22.17;;;10.93;;
73632;SDS011;61927;50.080;14.418;2023-02-28T11:27:58;28.58;;;10.30;;
73632;SDS011;61927;50.080;14.418;2023-02-28T11:30:31;18.25;;;9.48;;
73632;SDS011;61927;50.080;14.418;2023-02-28T11:32:59;21.38;;;8.80;;
73632;SDS011;61927;50.080;14.418;2023-02-28T11:35:30;31.98;;;11.38;;
73632;SDS011;61927;50.080;14.418;2023-02-28T11:38:00;14.68;;;8.27;;
73632;SDS011;61927;50.080;14.418;2023-02-28T11:45:54;21.02;;;9.48;;
73632;SDS011;61927;50.080;14.418;2023-02-28T11:48:52;18.52;;;8.73;;
73632;SDS011;61927;50.080;14.418;2023-02-28T11:51:42;13.98;;;9.20;;
73632;SDS011;61927;50.080;14.418;2023-02-28T11:57:20;13.00;;;8.90;;
73632;SDS011;61927;50.080;14.418;2023-02-28T12:10:22;27.05;;;9.43;;
73632;SDS011;61927;50.080;14.418;2023-02-28T12:18:53;29.67;;;10.98;;
73632;SDS011;61927;50.080;14.418;2023-02-28T12:24:16;13.38;;;7.97;;
73632;SDS011;61927;50.080;14.418;2023-02-28T12:26:48;19.13;;;10.25;;
73632;SDS011;61927;50.080;14.418;2023-02-28T12:29:23;19.77;;;10.75;;
73632;SDS011;61927;50.080;14.418;2023-02-28T12:32:09;22.48;;;9.75;;
73632;SDS011;61927;50.080;14.418;2023-02-28T12:34:58;24.13;;;9.65;;
73632;SDS011;61927;50.080;14.418;2023-02-28T12:37:40;13.13;;;7.53;;
73632;SDS011;61927;50.080;14.418;2023-02-28T12:40:25;11.85;;;7.57;;
73632;SDS011;61927;50.080;14.418;2023-02-28T12:43:08;24.10;;;12.13;;
73632;SDS011;61927;50.080;14.418;2023-02-28T12:45:39;12.27;;;7.65;;
73632;SDS011;61927;50.080;14.418;2023-02-28T12:48:10;12.45;;;8.63;;
73632;SDS011;61927;50.080;14.418;2023-02-28T12:51:07;18.27;;;11.57;;
73632;SDS011;61927;50.080;14.418;2023-02-28T12:58:54;20.80;;;8.52;;
73632;SDS011;61927;50.080;14.418;2023-02-28T13:10:03;14.00;;;7.95;;
73632;SDS011;61927;50.080;14.418;2023-02-28T13:12:32;11.07;;;7.40;;
73632;SDS011;61927;50.080;14.418;2023-02-28T13:17:55;12.18;;;8.48;;
73632;SDS011;61927;50.080;14.418;2023-02-28T13:20:24;14.75;;;7.80;;
73632;SDS011;61927;50.080;14.418;2023-02-28T13:22:56;20.63;;;8.25;;
73632;SDS011;61927;50.080;14.418;2023-02-28T13:27:49;20.45;;;9.45;;
73632;SDS011;61927;50.080;14.418;2023-02-28T13:35:47;13.52;;;7.32;;
73632;SDS011;61927;50.080;14.418;2023-02-28T13:38:15;15.90;;;9.70;;
73632;SDS011;61927;50.080;14.418;2023-02-28T13:40:46;11.35;;;8.10;;
73632;SDS011;61927;50.080;14.418;2023-02-28T13:43:12;10.30;;;8.50;;
73632;SDS011;61927;50.080;14.418;2023-02-28T13:46:03;13.63;;;8.35;;
73632;SDS011;61927;50.080;14.418;2023-02-28T13:48:36;17.77;;;10.65;;
73632;SDS011;61927;50.080;14.418;2023-02-28T13:51:25;16.77;;;9.98;;
73632;SDS011;61927;50.080;14.418;2023-02-28T13:54:02;16.98;;;9.50;;
73632;SDS011;61927;50.080;14.418;2023-02-28T13:56:40;13.23;;;8.65;;
73632;SDS011;61927;50.080;14.418;2023-02-28T13:59:26;13.15;;;8.15;;
73632;SDS011;61927;50.080;14.418;2023-02-28T14:02:37;14.02;;;8.45;;
73632;SDS011;61927;50.080;14.418;2023-02-28T14:05:17;14.48;;;8.35;;
73632;SDS011;61927;50.080;14.418;2023-02-28T14:07:55;17.73;;;8.13;;
73632;SDS011;61927;50.080;14.418;2023-02-28T14:10:33;15.90;;;8.63;;
73632;SDS011;61927;50.080;14.418;2023-02-28T14:15:39;21.20;;;9.90;;
73632;SDS011;61927;50.080;14.418;2023-02-28T14:18:42;22.55;;;7.63;;
73632;SDS011;61927;50.080;14.418;2023-02-28T14:21:10;11.32;;;7.57;;
73632;SDS011;61927;50.080;14.418;2023-02-28T14:23:45;15.02;;;8.18;;
73632;SDS011;61927;50.080;14.418;2023-02-28T14:34:36;10.57;;;7.63;;
73632;SDS011;61927;50.080;14.418;2023-02-28T14:37:20;16.38;;;8.45;;
73632;SDS011;61927;50.080;14.418;2023-02-28T14:39:51;13.70;;;8.63;;
73632;SDS011;61927;50.080;14.418;2023-02-28T14:42:34;12.95;;;7.85;;
73632;SDS011;61927;50.080;14.418;2023-02-28T14:45:03;16.48;;;8.38;;
73632;SDS011;61927;50.080;14.418;2023-02-28T14:47:33;18.65;;;8.30;;
73632;SDS011;61927;50.080;14.418;2023-02-28T14:50:01;16.92;;;11.32;;
73632;SDS011;61927;50.080;14.418;2023-02-28T14:52:30;21.33;;;11.77;;
73632;SDS011;61927;50.080;14.418;2023-02-28T14:54:59;16.05;;;9.23;;
73632;SDS011;61927;50.080;14.418;2023-02-28T14:57:29;11.63;;;8.63;;
73632;SDS011;61927;50.080;14.418;2023-02-28T15:02:47;13.95;;;8.70;;
73632;SDS011;61927;50.080;14.418;2023-02-28T15:07:38;18.45;;;9.50;;
73632;SDS011;61927;50.080;14.418;2023-02-28T15:12:34;22.80;;;9.38;;
73632;SDS011;61927;50.080;14.418;2023-02-28T15:15:01;14.98;;;9.40;;
73632;SDS011;61927;50.080;14.418;2023-02-28T15:17:27;14.15;;;9.40;;
73632;SDS011;61927;50.080;14.418;2023-02-28T15:19:53;15.35;;;10.07;;
73632;SDS011;61927;50.080;14.418;2023-02-28T15:22:23;18.02;;;10.50;;
73632;SDS011;61927;50.080;14.418;2023-02-28T15:25:02;16.73;;;9.80;;
73632;SDS011;61927;50.080;14.418;2023-02-28T15:27:31;20.20;;;8.98;;
73632;SDS011;61927;50.080;14.418;2023-02-28T15:29:59;15.57;;;8.70;;
73632;SDS011;61927;50.080;14.418;2023-02-28T15:32:34;14.57;;;8.48;;
73632;SDS011;61927;50.080;14.418;2023-02-28T15:38:04;18.48;;;9.38;;
73632;SDS011;61927;50.080;14.418;2023-02-28T15:40:42;16.27;;;9.70;;
73632;SDS011;61927;50.080;14.418;2023-02-28T15:43:57;27.08;;;9.35;;
73632;SDS011;61927;50.080;14.418;2023-02-28T15:46:09;15.63;;;9.73;;
73632;SDS011;61927;50.080;14.418;2023-02-28T15:48:58;17.70;;;9.90;;
73632;SDS011;61927;50.080;14.418;2023-02-28T15:51:32;16.05;;;9.93;;
73632;SDS011;61927;50.080;14.418;2023-02-28T15:54:00;12.82;;;8.70;;
73632;SDS011;61927;50.080;14.418;2023-02-28T15:56:31;16.45;;;9.85;;
73632;SDS011;61927;50.080;14.418;2023-02-28T15:58:59;18.90;;;10.77;;
73632;SDS011;61927;50.080;14.418;2023-02-28T16:01:27;19.65;;;13.15;;
73632;SDS011;61927;50.080;14.418;2023-02-28T16:03:57;17.20;;;10.32;;
73632;SDS011;61927;50.080;14.418;2023-02-28T16:06:32;25.45;;;14.18;;
73632;SDS011;61927;50.080;14.418;2023-02-28T16:09:00;12.05;;;8.95;;
73632;SDS011;61927;50.080;14.418;2023-02-28T16:11:26;13.07;;;8.40;;
73632;SDS011;61927;50.080;14.418;2023-02-28T16:13:52;11.70;;;8.68;;
73632;SDS011;61927;50.080;14.418;2023-02-28T16:16:23;17.13;;;10.05;;
73632;SDS011;61927;50.080;14.418;2023-02-28T16:18:51;16.17;;;9.77;;
73632;SDS011;61927;50.080;14.418;2023-02-28T16:21:17;18.08;;;9.60;;
73632;SDS011;61927;50.080;14.418;2023-02-28T16:23:43;14.32;;;9.40;;
73632;SDS011;61927;50.080;14.418;2023-02-28T16:26:16;17.65;;;9.90;;
73632;SDS011;61927;50.080;14.418;2023-02-28T16:28:48;23.52;;;10.10;;
73632;SDS011;61927;50.080;14.418;2023-02-28T16:31:15;20.23;;;11.73;;
73632;SDS011;61927;50.080;14.418;2023-02-28T16:33:42;17.30;;;9.57;;
73632;SDS011;61927;50.080;14.418;2023-02-28T16:36:28;15.75;;;8.60;;
73632;SDS011;61927;50.080;14.418;2023-02-28T16:38:54;18.60;;;9.20;;
73632;SDS011;61927;50.080;14.418;2023-02-28T16:41:21;11.52;;;8.18;;